createdAt,value
2022-10-13T00:00:13.000Z,98.47
2022-10-13T00:01:13.000Z,98.37
2022-10-13T00:02:13.000Z,98.27
2022-10-13T00:03:13.000Z,98.16
2022-10-13T00:04:14.000Z,98.06
2022-10-13T00:05:14.000Z,98.06
2022-10-13T00:06:14.000Z,98.06
2022-10-13T00:07:14.000Z,97.96
2022-10-13T00:08:14.000Z,97.96
2022-10-13T00:09:14.000Z,98.06
2022-10-13T00:10:14.000Z,98.06
2022-10-13T00:11:14.000Z,98.06
2022-10-13T00:12:14.000Z,98.06
2022-10-13T00:13:14.000Z,98.06
2022-10-13T00:14:14.000Z,98.16
2022-10-13T00:15:15.000Z,98.41
2022-10-13T00:16:15.000Z,98.62
2022-10-13T00:17:15.000Z,98.99
2022-10-13T00:18:15.000Z,99.24
2022-10-13T00:19:15.000Z,99.24
2022-10-13T00:20:15.000Z,99.14
2022-10-13T00:21:15.000Z,99.14
2022-10-13T00:22:15.000Z,98.93
2022-10-13T00:23:15.000Z,98.83
2022-10-13T00:24:15.000Z,98.72
2022-10-13T00:25:15.000Z,98.62
2022-10-13T00:26:16.000Z,98.72
2022-10-13T00:27:16.000Z,98.62
2022-10-13T00:28:16.000Z,98.66
2022-10-13T00:29:16.000Z,98.52
2022-10-13T00:30:16.000Z,98.41
2022-10-13T00:31:16.000Z,98.35
2022-10-13T00:32:16.000Z,98.46
2022-10-13T00:33:16.000Z,98.66
2022-10-13T00:34:16.000Z,98.77
2022-10-13T00:35:16.000Z,98.87
2022-10-13T00:36:16.000Z,98.87
2022-10-13T00:37:17.000Z,98.77
2022-10-13T00:38:17.000Z,98.77
2022-10-13T00:39:17.000Z,98.56
2022-10-13T00:40:17.000Z,98.35
2022-10-13T00:41:17.000Z,98.15
2022-10-13T00:42:17.000Z,98.15
2022-10-13T00:43:17.000Z,98.15
2022-10-13T00:44:17.000Z,98.09
2022-10-13T00:45:17.000Z,98.05
2022-10-13T00:46:17.000Z,98.30
2022-10-13T00:47:17.000Z,98.50
2022-10-13T00:48:18.000Z,98.71
2022-10-13T00:49:18.000Z,98.82
2022-10-13T00:50:18.000Z,98.71
2022-10-13T00:51:18.000Z,98.82
2022-10-13T00:52:18.000Z,98.92
2022-10-13T00:53:18.000Z,99.02
2022-10-13T00:54:18.000Z,99.13
2022-10-13T00:55:18.000Z,99.23
2022-10-13T00:56:18.000Z,99.33
2022-10-13T00:57:18.000Z,99.43
2022-10-13T00:58:18.000Z,99.39
2022-10-13T00:59:19.000Z,99.49
2022-10-13T01:00:19.000Z,99.54
2022-10-13T01:01:19.000Z,99.60
2022-10-13T01:02:19.000Z,99.70
2022-10-13T01:03:19.000Z,99.91
2022-10-13T01:04:19.000Z,99.99
2022-10-13T01:05:19.000Z,99.99
2022-10-13T01:06:19.000Z,99.99
2022-10-13T01:07:19.000Z,99.99
2022-10-13T01:08:19.000Z,99.99
2022-10-13T01:09:19.000Z,99.99
2022-10-13T01:10:20.000Z,99.99
2022-10-13T01:11:20.000Z,99.99
2022-10-13T01:12:20.000Z,99.99
2022-10-13T01:13:20.000Z,99.99
2022-10-13T01:14:20.000Z,99.99
2022-10-13T01:15:20.000Z,99.99
2022-10-13T01:16:20.000Z,99.99
2022-10-13T01:17:20.000Z,99.99
2022-10-13T01:18:20.000Z,99.99
2022-10-13T01:19:20.000Z,99.99
2022-10-13T01:20:20.000Z,99.99
2022-10-13T01:21:21.000Z,99.99
2022-10-13T01:22:21.000Z,99.99
2022-10-13T01:23:21.000Z,99.99
2022-10-13T01:24:21.000Z,99.99
2022-10-13T01:25:21.000Z,99.99
2022-10-13T01:26:21.000Z,99.99
2022-10-13T01:27:21.000Z,99.99
2022-10-13T01:28:21.000Z,99.99
2022-10-13T01:29:21.000Z,99.99
2022-10-13T01:30:21.000Z,99.99
2022-10-13T01:31:21.000Z,99.99
2022-10-13T01:32:21.000Z,99.99
2022-10-13T01:33:22.000Z,99.99
2022-10-13T01:34:22.000Z,99.99
2022-10-13T01:35:22.000Z,99.99
2022-10-13T01:36:22.000Z,99.99
2022-10-13T01:37:22.000Z,99.99
2022-10-13T01:38:22.000Z,99.99
2022-10-13T01:39:22.000Z,99.99
2022-10-13T01:40:22.000Z,99.99
2022-10-13T01:41:22.000Z,99.99
2022-10-13T01:42:22.000Z,99.99
2022-10-13T01:43:22.000Z,99.99
2022-10-13T01:44:23.000Z,99.99
2022-10-13T01:45:23.000Z,99.99
2022-10-13T01:46:23.000Z,99.99
2022-10-13T01:47:23.000Z,99.99
2022-10-13T01:48:23.000Z,99.99
2022-10-13T01:49:23.000Z,99.99
2022-10-13T01:50:23.000Z,99.99
2022-10-13T01:51:23.000Z,99.99
2022-10-13T01:52:23.000Z,99.99
2022-10-13T01:53:23.000Z,99.99
2022-10-13T01:54:23.000Z,99.99
2022-10-13T01:55:24.000Z,99.99
2022-10-13T01:56:24.000Z,99.99
2022-10-13T01:57:24.000Z,99.99
2022-10-13T01:58:24.000Z,99.99
2022-10-13T01:59:24.000Z,99.99
2022-10-13T02:00:24.000Z,99.99
2022-10-13T02:01:24.000Z,99.99
2022-10-13T02:02:24.000Z,99.99
2022-10-13T02:03:24.000Z,99.99
2022-10-13T02:04:24.000Z,99.99
2022-10-13T02:05:24.000Z,99.99
2022-10-13T02:06:24.000Z,99.99
2022-10-13T02:07:25.000Z,99.99
2022-10-13T02:08:25.000Z,99.99
2022-10-13T02:09:25.000Z,99.99
2022-10-13T02:10:25.000Z,99.99
2022-10-13T02:11:25.000Z,99.99
2022-10-13T02:12:25.000Z,99.99
2022-10-13T02:13:25.000Z,99.99
2022-10-13T02:14:25.000Z,99.99
2022-10-13T02:15:25.000Z,99.99
2022-10-13T02:16:25.000Z,99.99
2022-10-13T02:17:25.000Z,99.99
2022-10-13T02:18:25.000Z,99.99
2022-10-13T02:19:26.000Z,99.99
2022-10-13T02:20:26.000Z,99.99
2022-10-13T02:21:26.000Z,99.99
2022-10-13T02:22:26.000Z,99.99
2022-10-13T02:23:26.000Z,99.99
2022-10-13T02:24:26.000Z,99.99
2022-10-13T02:25:26.000Z,99.99
2022-10-13T02:26:26.000Z,99.99
2022-10-13T02:27:26.000Z,99.99
2022-10-13T02:28:26.000Z,99.99
2022-10-13T02:29:26.000Z,99.99
2022-10-13T02:30:26.000Z,99.99
2022-10-13T02:31:27.000Z,99.99
2022-10-13T02:32:27.000Z,99.99
2022-10-13T02:33:27.000Z,99.99
2022-10-13T02:34:27.000Z,99.99
2022-10-13T02:35:27.000Z,99.99
2022-10-13T02:36:27.000Z,99.99
2022-10-13T02:37:27.000Z,99.99
2022-10-13T02:38:27.000Z,99.99
2022-10-13T02:39:27.000Z,99.99
2022-10-13T02:40:27.000Z,99.99
2022-10-13T02:41:27.000Z,99.99
2022-10-13T02:42:27.000Z,99.99
2022-10-13T02:43:27.000Z,99.99
2022-10-13T02:44:28.000Z,99.99
2022-10-13T02:45:28.000Z,99.99
2022-10-13T02:46:28.000Z,99.99
2022-10-13T02:47:28.000Z,99.99
2022-10-13T02:48:28.000Z,99.99
2022-10-13T02:49:28.000Z,99.99
2022-10-13T02:50:28.000Z,99.99
2022-10-13T02:51:28.000Z,99.99
2022-10-13T02:52:28.000Z,99.99
2022-10-13T02:53:28.000Z,99.99
2022-10-13T02:54:28.000Z,99.99
2022-10-13T02:55:28.000Z,99.99
2022-10-13T02:56:29.000Z,99.99
2022-10-13T02:57:29.000Z,99.99
2022-10-13T02:58:29.000Z,99.99
2022-10-13T02:59:29.000Z,99.99
2022-10-13T03:00:29.000Z,99.99
2022-10-13T03:01:29.000Z,99.99
2022-10-13T03:02:29.000Z,99.99
2022-10-13T03:03:29.000Z,99.99
2022-10-13T03:04:29.000Z,99.99
2022-10-13T03:05:29.000Z,99.99
2022-10-13T03:06:29.000Z,99.99
2022-10-13T03:07:29.000Z,99.99
2022-10-13T03:08:29.000Z,99.99
2022-10-13T03:09:30.000Z,99.99
2022-10-13T03:10:30.000Z,99.99
2022-10-13T03:11:30.000Z,99.99
2022-10-13T03:12:30.000Z,99.99
2022-10-13T03:13:30.000Z,99.99
2022-10-13T03:14:30.000Z,99.99
2022-10-13T03:15:30.000Z,99.99
2022-10-13T03:16:30.000Z,99.99
2022-10-13T03:17:30.000Z,99.99
2022-10-13T03:18:30.000Z,99.99
2022-10-13T03:19:30.000Z,99.99
2022-10-13T03:20:30.000Z,99.99
2022-10-13T03:21:30.000Z,99.99
2022-10-13T03:22:31.000Z,99.99
2022-10-13T03:23:31.000Z,99.99
2022-10-13T03:24:31.000Z,99.99
2022-10-13T03:25:31.000Z,99.99
2022-10-13T03:26:31.000Z,99.99
2022-10-13T03:27:31.000Z,99.99
2022-10-13T03:28:31.000Z,99.99
2022-10-13T03:29:31.000Z,99.99
2022-10-13T03:30:31.000Z,99.99
2022-10-13T03:31:31.000Z,99.99
2022-10-13T03:32:31.000Z,99.99
2022-10-13T03:33:31.000Z,99.99
2022-10-13T03:34:31.000Z,99.99
2022-10-13T03:35:32.000Z,99.99
2022-10-13T03:36:32.000Z,99.99
2022-10-13T03:37:32.000Z,99.99
2022-10-13T03:38:32.000Z,99.99
2022-10-13T03:39:32.000Z,99.99
2022-10-13T03:40:32.000Z,99.99
2022-10-13T03:41:32.000Z,99.99
2022-10-13T03:42:32.000Z,99.99
2022-10-13T03:43:32.000Z,99.99
2022-10-13T03:44:32.000Z,99.99
2022-10-13T03:45:32.000Z,99.99
2022-10-13T03:46:32.000Z,99.99
2022-10-13T03:47:32.000Z,99.99
2022-10-13T03:48:32.000Z,99.99
2022-10-13T03:49:33.000Z,99.99
2022-10-13T03:50:33.000Z,99.99
2022-10-13T03:51:33.000Z,99.99
2022-10-13T03:52:33.000Z,99.99
2022-10-13T03:53:33.000Z,99.99
2022-10-13T03:54:33.000Z,99.99
2022-10-13T03:55:33.000Z,99.99
2022-10-13T03:56:33.000Z,99.99
2022-10-13T03:57:33.000Z,99.99
2022-10-13T03:58:33.000Z,99.99
2022-10-13T03:59:33.000Z,99.99
2022-10-13T04:00:33.000Z,99.99
2022-10-13T04:01:33.000Z,99.99
2022-10-13T04:02:33.000Z,99.99
2022-10-13T04:03:34.000Z,99.99
2022-10-13T04:04:34.000Z,99.99
2022-10-13T04:05:34.000Z,99.99
2022-10-13T04:06:34.000Z,99.99
2022-10-13T04:07:34.000Z,99.99
2022-10-13T04:08:34.000Z,99.99
2022-10-13T04:09:34.000Z,99.99
2022-10-13T04:10:34.000Z,99.99
2022-10-13T04:11:34.000Z,99.99
2022-10-13T04:12:34.000Z,99.99
2022-10-13T04:13:34.000Z,99.99
2022-10-13T04:14:34.000Z,99.99
2022-10-13T04:15:34.000Z,99.99
2022-10-13T04:16:34.000Z,99.99
2022-10-13T04:17:34.000Z,99.99
2022-10-13T04:18:35.000Z,99.99
2022-10-13T04:19:35.000Z,99.99
2022-10-13T04:20:35.000Z,99.99
2022-10-13T04:21:35.000Z,99.99
2022-10-13T04:22:35.000Z,99.99
2022-10-13T04:23:35.000Z,99.99
2022-10-13T04:24:35.000Z,99.99
2022-10-13T04:25:35.000Z,99.99
2022-10-13T04:26:35.000Z,99.99
2022-10-13T04:27:35.000Z,99.99
2022-10-13T04:28:35.000Z,99.99
2022-10-13T04:29:35.000Z,99.99
2022-10-13T04:30:35.000Z,99.99
2022-10-13T04:31:36.000Z,99.99
2022-10-13T04:32:36.000Z,99.99
2022-10-13T04:33:36.000Z,99.99
2022-10-13T04:34:36.000Z,99.99
2022-10-13T04:35:36.000Z,99.99
2022-10-13T04:36:36.000Z,99.99
2022-10-13T04:37:36.000Z,99.99
2022-10-13T04:38:36.000Z,99.99
2022-10-13T04:39:36.000Z,99.99
2022-10-13T04:40:36.000Z,99.99
2022-10-13T04:41:36.000Z,99.99
2022-10-13T04:42:36.000Z,99.99
2022-10-13T04:43:36.000Z,99.99
2022-10-13T04:44:37.000Z,99.99
2022-10-13T04:45:37.000Z,99.99
2022-10-13T04:46:37.000Z,99.99
2022-10-13T04:47:37.000Z,99.99
2022-10-13T04:48:37.000Z,99.99
2022-10-13T04:49:37.000Z,99.99
2022-10-13T04:50:37.000Z,99.99
2022-10-13T04:51:37.000Z,99.99
2022-10-13T04:52:37.000Z,99.99
2022-10-13T04:53:37.000Z,99.99
2022-10-13T04:54:37.000Z,99.99
2022-10-13T04:55:37.000Z,99.99
2022-10-13T04:56:37.000Z,99.99
2022-10-13T04:57:37.000Z,99.99
2022-10-13T04:58:38.000Z,99.99
2022-10-13T04:59:38.000Z,99.99
2022-10-13T05:00:38.000Z,99.99
2022-10-13T05:01:38.000Z,99.99
2022-10-13T05:02:38.000Z,99.99
2022-10-13T05:03:38.000Z,99.99
2022-10-13T05:04:38.000Z,99.99
2022-10-13T05:05:38.000Z,99.99
2022-10-13T05:06:38.000Z,99.99
2022-10-13T05:07:38.000Z,99.99
2022-10-13T05:08:38.000Z,99.99
2022-10-13T05:09:38.000Z,99.99
2022-10-13T05:10:38.000Z,99.99
2022-10-13T05:11:38.000Z,99.99
2022-10-13T05:12:38.000Z,99.99
2022-10-13T05:13:39.000Z,99.99
2022-10-13T05:14:39.000Z,99.99
2022-10-13T05:15:39.000Z,99.99
2022-10-13T05:16:39.000Z,99.99
2022-10-13T05:17:39.000Z,99.99
2022-10-13T05:18:39.000Z,99.99
2022-10-13T05:19:39.000Z,99.99
2022-10-13T05:20:39.000Z,99.99
2022-10-13T05:21:39.000Z,99.99
2022-10-13T05:22:39.000Z,99.99
2022-10-13T05:23:39.000Z,99.99
2022-10-13T05:24:39.000Z,99.99
2022-10-13T05:25:39.000Z,99.99
2022-10-13T05:26:39.000Z,99.99
2022-10-13T05:27:39.000Z,99.99
2022-10-13T05:28:40.000Z,99.99
2022-10-13T05:29:40.000Z,99.99
2022-10-13T05:30:40.000Z,99.99
2022-10-13T05:31:40.000Z,99.99
2022-10-13T05:32:40.000Z,99.99
2022-10-13T05:33:40.000Z,99.99
2022-10-13T05:34:40.000Z,99.99
2022-10-13T05:35:40.000Z,99.99
2022-10-13T05:36:40.000Z,99.99
2022-10-13T05:37:40.000Z,99.99
2022-10-13T05:38:40.000Z,99.99
2022-10-13T05:39:40.000Z,99.99
2022-10-13T05:40:40.000Z,99.99
2022-10-13T05:41:40.000Z,99.99
2022-10-13T05:42:40.000Z,99.99
2022-10-13T05:43:41.000Z,99.99
2022-10-13T05:44:41.000Z,99.99
2022-10-13T05:45:41.000Z,99.99
2022-10-13T05:46:41.000Z,99.99
2022-10-13T05:47:41.000Z,99.99
2022-10-13T05:48:41.000Z,99.99
2022-10-13T05:49:41.000Z,99.99
2022-10-13T05:50:41.000Z,99.99
2022-10-13T05:51:41.000Z,99.99
2022-10-13T05:52:41.000Z,99.99
2022-10-13T05:53:41.000Z,99.99
2022-10-13T05:54:41.000Z,99.99
2022-10-13T05:55:41.000Z,99.99
2022-10-13T05:56:41.000Z,99.99
2022-10-13T05:57:41.000Z,99.99
2022-10-13T05:58:41.000Z,99.99
2022-10-13T05:59:41.000Z,99.99
2022-10-13T06:00:42.000Z,99.99
2022-10-13T06:01:42.000Z,99.99
2022-10-13T06:02:42.000Z,99.99
2022-10-13T06:03:42.000Z,99.99
2022-10-13T06:04:42.000Z,99.99
2022-10-13T06:05:42.000Z,99.99
2022-10-13T06:06:42.000Z,99.99
2022-10-13T06:07:42.000Z,99.99
2022-10-13T06:08:42.000Z,99.99
2022-10-13T06:09:42.000Z,99.99
2022-10-13T06:10:42.000Z,99.99
2022-10-13T06:11:42.000Z,99.99
2022-10-13T06:12:42.000Z,99.99
2022-10-13T06:13:42.000Z,99.99
2022-10-13T06:14:42.000Z,99.99
2022-10-13T06:15:42.000Z,99.99
2022-10-13T06:16:42.000Z,99.99
2022-10-13T06:17:42.000Z,99.99
2022-10-13T06:18:43.000Z,99.99
2022-10-13T06:19:43.000Z,99.99
2022-10-13T06:20:43.000Z,99.99
2022-10-13T06:21:43.000Z,99.99
2022-10-13T06:22:43.000Z,99.99
2022-10-13T06:23:43.000Z,99.99
2022-10-13T06:24:43.000Z,99.99
2022-10-13T06:25:43.000Z,99.99
2022-10-13T06:26:43.000Z,99.99
2022-10-13T06:27:43.000Z,99.99
2022-10-13T06:28:43.000Z,99.91
2022-10-13T06:29:43.000Z,99.82
2022-10-13T06:30:43.000Z,99.51
2022-10-13T06:31:43.000Z,99.10
2022-10-13T06:32:43.000Z,98.90
2022-10-13T06:33:43.000Z,98.79
2022-10-13T06:34:43.000Z,98.65
2022-10-13T06:35:43.000Z,98.33
2022-10-13T06:36:43.000Z,98.13
2022-10-13T06:37:44.000Z,97.92
2022-10-13T06:38:44.000Z,97.72
2022-10-13T06:39:44.000Z,97.72
2022-10-13T06:40:44.000Z,97.67
2022-10-13T06:41:44.000Z,97.57
2022-10-13T06:42:44.000Z,97.47
2022-10-13T06:43:44.000Z,97.06
2022-10-13T06:44:44.000Z,97.06
2022-10-13T06:45:44.000Z,96.86
2022-10-13T06:46:44.000Z,96.86
2022-10-13T06:47:44.000Z,96.75
2022-10-13T06:48:44.000Z,96.45
2022-10-13T06:49:44.000Z,96.25
2022-10-13T06:50:44.000Z,96.14
2022-10-13T06:51:44.000Z,96.04
2022-10-13T06:52:44.000Z,95.89
2022-10-13T06:53:44.000Z,95.94
2022-10-13T06:54:44.000Z,95.89
2022-10-13T06:55:44.000Z,95.69
2022-10-13T06:56:44.000Z,95.69
2022-10-13T06:57:44.000Z,95.69
2022-10-13T06:58:45.000Z,95.79
2022-10-13T06:59:45.000Z,95.69
2022-10-13T07:00:45.000Z,95.59
2022-10-13T07:01:45.000Z,95.69
2022-10-13T07:02:45.000Z,95.69
2022-10-13T07:03:45.000Z,95.59
2022-10-13T07:04:45.000Z,95.69
2022-10-13T07:05:45.000Z,95.79
2022-10-13T07:06:45.000Z,95.79
2022-10-13T07:07:45.000Z,96.00
2022-10-13T07:08:45.000Z,96.10
2022-10-13T07:09:45.000Z,96.20
2022-10-13T07:10:45.000Z,96.41
2022-10-13T07:11:45.000Z,96.51
2022-10-13T07:12:45.000Z,96.61
2022-10-13T07:13:45.000Z,96.51
2022-10-13T07:14:45.000Z,96.51
2022-10-13T07:15:45.000Z,96.41
2022-10-13T07:16:45.000Z,96.41
2022-10-13T07:17:45.000Z,96.36
2022-10-13T07:18:45.000Z,96.15
2022-10-13T07:19:45.000Z,96.15
2022-10-13T07:20:46.000Z,96.26
2022-10-13T07:21:46.000Z,96.15
2022-10-13T07:22:46.000Z,95.85
2022-10-13T07:23:46.000Z,95.70
2022-10-13T07:24:46.000Z,95.60
2022-10-13T07:25:46.000Z,95.60
2022-10-13T07:26:46.000Z,95.39
2022-10-13T07:27:46.000Z,95.29
2022-10-13T07:28:46.000Z,95.09
2022-10-13T07:29:46.000Z,94.98
2022-10-13T07:30:46.000Z,94.78
2022-10-13T07:31:46.000Z,94.94
2022-10-13T07:32:46.000Z,94.53
2022-10-13T07:33:46.000Z,94.43
2022-10-13T07:34:46.000Z,94.43
2022-10-13T07:35:46.000Z,94.33
2022-10-13T07:36:46.000Z,94.33
2022-10-13T07:37:46.000Z,94.33
2022-10-13T07:38:46.000Z,94.33
2022-10-13T07:39:46.000Z,94.33
2022-10-13T07:40:46.000Z,94.33
2022-10-13T07:41:46.000Z,94.33
2022-10-13T07:42:46.000Z,94.08
2022-10-13T07:43:46.000Z,93.88
2022-10-13T07:44:47.000Z,93.88
2022-10-13T07:45:47.000Z,93.88
2022-10-13T07:46:47.000Z,93.67
2022-10-13T07:47:47.000Z,93.77
2022-10-13T07:48:47.000Z,93.57
2022-10-13T07:49:47.000Z,93.32
2022-10-13T07:50:47.000Z,93.12
2022-10-13T07:51:47.000Z,93.12
2022-10-13T07:52:47.000Z,93.12
2022-10-13T07:53:47.000Z,92.81
2022-10-13T07:54:47.000Z,92.61
2022-10-13T07:55:47.000Z,92.50
2022-10-13T07:56:47.000Z,92.26
2022-10-13T07:57:47.000Z,92.36
2022-10-13T07:58:47.000Z,92.36
2022-10-13T07:59:47.000Z,92.26
2022-10-13T08:00:47.000Z,92.05
2022-10-13T08:01:47.000Z,92.16
2022-10-13T08:02:47.000Z,92.05
2022-10-13T08:03:47.000Z,92.05
2022-10-13T08:04:47.000Z,91.91
2022-10-13T08:05:47.000Z,91.71
2022-10-13T08:06:47.000Z,91.61
2022-10-13T08:07:47.000Z,91.71
2022-10-13T08:08:47.000Z,91.71
2022-10-13T08:09:47.000Z,91.50
2022-10-13T08:10:47.000Z,91.50
2022-10-13T08:11:48.000Z,91.40
2022-10-13T08:12:48.000Z,91.05
2022-10-13T08:13:48.000Z,91.05
2022-10-13T08:14:48.000Z,91.36
2022-10-13T08:15:48.000Z,91.46
2022-10-13T08:16:48.000Z,91.46
2022-10-13T08:17:48.000Z,90.75
2022-10-13T08:18:48.000Z,90.75
2022-10-13T08:19:48.000Z,90.91
2022-10-13T08:20:48.000Z,91.11
2022-10-13T08:21:48.000Z,90.81
2022-10-13T08:22:48.000Z,90.40
2022-10-13T08:23:48.000Z,90.20
2022-10-13T08:24:48.000Z,90.05
2022-10-13T08:25:48.000Z,89.64
2022-10-13T08:26:48.000Z,89.34
2022-10-13T08:27:48.000Z,89.44
2022-10-13T08:28:48.000Z,89.70
2022-10-13T08:29:48.000Z,89.40
2022-10-13T08:30:48.000Z,88.79
2022-10-13T08:31:48.000Z,88.79
2022-10-13T08:32:48.000Z,88.79
2022-10-13T08:33:48.000Z,88.28
2022-10-13T08:34:48.000Z,88.18
2022-10-13T08:35:48.000Z,87.84
2022-10-13T08:36:48.000Z,87.93
2022-10-13T08:37:48.000Z,88.44
2022-10-13T08:38:48.000Z,87.63
2022-10-13T08:39:48.000Z,87.93
2022-10-13T08:40:48.000Z,88.65
2022-10-13T08:41:48.000Z,87.84
2022-10-13T08:42:48.000Z,87.69
2022-10-13T08:43:49.000Z,86.88
2022-10-13T08:44:49.000Z,87.18
2022-10-13T08:45:49.000Z,87.18
2022-10-13T08:46:49.000Z,86.88
2022-10-13T08:47:49.000Z,87.08
2022-10-13T08:48:49.000Z,86.94
2022-10-13T08:49:49.000Z,86.83
2022-10-13T08:50:49.000Z,87.14
2022-10-13T08:51:49.000Z,87.14
2022-10-13T08:52:49.000Z,86.53
2022-10-13T08:53:49.000Z,86.63
2022-10-13T08:54:56.000Z,86.22
2022-10-13T08:55:49.000Z,86.02
2022-10-13T08:56:49.000Z,86.29
2022-10-13T08:57:49.000Z,86.80
2022-10-13T08:58:49.000Z,85.68
2022-10-13T08:59:49.000Z,85.38
2022-10-13T09:00:49.000Z,85.38
2022-10-13T09:01:49.000Z,86.49
2022-10-13T09:02:49.000Z,86.49
2022-10-13T09:03:49.000Z,85.53
2022-10-13T09:04:49.000Z,85.38
2022-10-13T09:05:49.000Z,85.27
2022-10-13T09:06:49.000Z,85.24
2022-10-13T09:07:49.000Z,85.44
2022-10-13T09:08:49.000Z,85.84
2022-10-13T09:09:49.000Z,85.64
2022-10-13T09:10:49.000Z,85.24
2022-10-13T09:11:49.000Z,85.24
2022-10-13T09:12:49.000Z,85.33
2022-10-13T09:13:49.000Z,84.93
2022-10-13T09:14:49.000Z,85.39
2022-10-13T09:15:49.000Z,85.09
2022-10-13T09:16:49.000Z,84.69
2022-10-13T09:17:49.000Z,84.58
2022-10-13T09:18:49.000Z,83.87
2022-10-13T09:19:49.000Z,84.08
2022-10-13T09:20:49.000Z,84.18
2022-10-13T09:21:49.000Z,84.28
2022-10-13T09:22:49.000Z,84.58
2022-10-13T09:23:49.000Z,84.69
2022-10-13T09:24:49.000Z,84.38
2022-10-13T09:25:49.000Z,84.18
2022-10-13T09:26:49.000Z,84.38
2022-10-13T09:27:49.000Z,84.24
2022-10-13T09:28:49.000Z,85.15
2022-10-13T09:29:49.000Z,84.95
2022-10-13T09:30:49.000Z,85.15
2022-10-13T09:31:49.000Z,83.94
2022-10-13T09:32:49.000Z,83.12
2022-10-13T09:33:49.000Z,83.94
2022-10-13T09:34:49.000Z,84.64
2022-10-13T09:35:49.000Z,84.44
2022-10-13T09:36:49.000Z,83.53
2022-10-13T09:37:49.000Z,83.49
2022-10-13T09:38:49.000Z,83.69
2022-10-13T09:39:49.000Z,84.50
2022-10-13T09:40:49.000Z,83.80
2022-10-13T09:41:49.000Z,83.59
2022-10-13T09:42:49.000Z,83.39
2022-10-13T09:43:49.000Z,83.39
2022-10-13T09:44:49.000Z,83.76
2022-10-13T09:45:49.000Z,83.55
2022-10-13T09:46:49.000Z,82.95
2022-10-13T09:47:49.000Z,81.93
2022-10-13T09:48:49.000Z,82.44
2022-10-13T09:49:49.000Z,81.73
2022-10-13T09:50:49.000Z,81.43
2022-10-13T09:51:49.000Z,81.43
2022-10-13T09:52:49.000Z,81.29
2022-10-13T09:53:49.000Z,82.30
2022-10-13T09:54:49.000Z,82.20
2022-10-13T09:55:49.000Z,81.59
2022-10-13T09:56:49.000Z,81.18
2022-10-13T09:57:49.000Z,81.59
2022-10-13T09:58:49.000Z,81.79
2022-10-13T09:59:49.000Z,81.05
2022-10-13T10:00:49.000Z,81.49
2022-10-13T10:01:50.000Z,81.76
2022-10-13T10:02:50.000Z,80.84
2022-10-13T10:03:50.000Z,81.05
2022-10-13T10:04:50.000Z,80.54
2022-10-13T10:05:50.000Z,80.74
2022-10-13T10:06:50.000Z,80.94
2022-10-13T10:07:50.000Z,81.15
2022-10-13T10:08:50.000Z,80.64
2022-10-13T10:09:50.000Z,80.64
2022-10-13T10:10:50.000Z,79.83
2022-10-13T10:11:50.000Z,80.84
2022-10-13T10:12:50.000Z,80.44
2022-10-13T10:13:50.000Z,80.24
2022-10-13T10:14:50.000Z,80.34
2022-10-13T10:15:50.000Z,79.63
2022-10-13T10:16:50.000Z,79.83
2022-10-13T10:17:50.000Z,80.34
2022-10-13T10:18:50.000Z,80.64
2022-10-13T10:19:50.000Z,80.13
2022-10-13T10:20:50.000Z,80.94
2022-10-13T10:21:50.000Z,80.44
2022-10-13T10:22:50.000Z,80.84
2022-10-13T10:23:50.000Z,80.44
2022-10-13T10:24:50.000Z,79.73
2022-10-13T10:25:50.000Z,80.04
2022-10-13T10:26:50.000Z,80.54
2022-10-13T10:27:50.000Z,80.44
2022-10-13T10:28:50.000Z,80.74
2022-10-13T10:29:50.000Z,80.44
2022-10-13T10:30:50.000Z,80.24
2022-10-13T10:31:50.000Z,80.24
2022-10-13T10:32:50.000Z,79.63
2022-10-13T10:33:50.000Z,79.90
2022-10-13T10:34:50.000Z,79.90
2022-10-13T10:35:50.000Z,79.59
2022-10-13T10:36:50.000Z,79.59
2022-10-13T10:37:50.000Z,79.59
2022-10-13T10:38:50.000Z,79.59
2022-10-13T10:39:49.000Z,79.08
2022-10-13T10:40:49.000Z,79.49
2022-10-13T10:41:49.000Z,79.08
2022-10-13T10:42:49.000Z,79.55
2022-10-13T10:43:49.000Z,80.66
2022-10-13T10:44:49.000Z,79.25
2022-10-13T10:45:49.000Z,78.04
2022-10-13T10:46:49.000Z,77.53
2022-10-13T10:47:49.000Z,77.73
2022-10-13T10:48:49.000Z,77.84
2022-10-13T10:49:49.000Z,78.55
2022-10-13T10:50:49.000Z,78.55
2022-10-13T10:51:49.000Z,78.34
2022-10-13T10:52:49.000Z,78.24
2022-10-13T10:53:49.000Z,77.53
2022-10-13T10:54:49.000Z,77.43
2022-10-13T10:55:49.000Z,77.33
2022-10-13T10:56:49.000Z,77.90
2022-10-13T10:57:49.000Z,78.00
2022-10-13T10:58:49.000Z,78.50
2022-10-13T10:59:49.000Z,78.71
2022-10-13T11:00:49.000Z,76.59
2022-10-13T11:01:49.000Z,77.60
2022-10-13T11:02:49.000Z,77.50
2022-10-13T11:03:49.000Z,77.70
2022-10-13T11:04:49.000Z,78.10
2022-10-13T11:05:49.000Z,77.73
2022-10-13T11:06:49.000Z,76.93
2022-10-13T11:07:49.000Z,77.73
2022-10-13T11:08:49.000Z,77.73
2022-10-13T11:09:49.000Z,77.84
2022-10-13T11:10:49.000Z,77.64
2022-10-13T11:11:49.000Z,77.33
2022-10-13T11:12:49.000Z,77.84
2022-10-13T11:13:49.000Z,77.33
2022-10-13T11:14:49.000Z,77.06
2022-10-13T11:15:49.000Z,77.06
2022-10-13T11:16:49.000Z,76.76
2022-10-13T11:17:49.000Z,76.76
2022-10-13T11:18:49.000Z,78.17
2022-10-13T11:19:49.000Z,77.67
2022-10-13T11:20:49.000Z,76.86
2022-10-13T11:21:49.000Z,77.47
2022-10-13T11:22:49.000Z,77.87
2022-10-13T11:23:49.000Z,77.67
2022-10-13T11:24:49.000Z,77.57
2022-10-13T11:25:49.000Z,77.17
2022-10-13T11:26:49.000Z,76.66
2022-10-13T11:27:49.000Z,77.47
2022-10-13T11:28:49.000Z,76.97
2022-10-13T11:29:49.000Z,77.77
2022-10-13T11:30:49.000Z,76.86
2022-10-13T11:31:49.000Z,76.46
2022-10-13T11:32:49.000Z,75.24
2022-10-13T11:33:49.000Z,75.65
2022-10-13T11:34:49.000Z,76.26
2022-10-13T11:35:49.000Z,76.26
2022-10-13T11:36:49.000Z,76.76
2022-10-13T11:37:49.000Z,77.37
2022-10-13T11:38:49.000Z,76.86
2022-10-13T11:39:49.000Z,76.86
2022-10-13T11:40:49.000Z,76.97
2022-10-13T11:41:49.000Z,76.15
2022-10-13T11:42:49.000Z,76.86
2022-10-13T11:43:49.000Z,76.22
2022-10-13T11:44:49.000Z,76.42
2022-10-13T11:45:49.000Z,77.03
2022-10-13T11:46:49.000Z,76.22
2022-10-13T11:47:49.000Z,75.48
2022-10-13T11:48:49.000Z,75.10
2022-10-13T11:49:49.000Z,75.01
2022-10-13T11:50:49.000Z,74.70
2022-10-13T11:51:48.000Z,74.60
2022-10-13T11:52:48.000Z,74.70
2022-10-13T11:53:48.000Z,74.30
2022-10-13T11:54:48.000Z,75.21
2022-10-13T11:55:48.000Z,75.92
2022-10-13T11:56:48.000Z,75.81
2022-10-13T11:57:48.000Z,75.21
2022-10-13T11:58:48.000Z,74.90
2022-10-13T11:59:48.000Z,75.27
2022-10-13T12:00:48.000Z,75.07
2022-10-13T12:01:48.000Z,75.88
2022-10-13T12:02:48.000Z,75.27
2022-10-13T12:03:48.000Z,74.16
2022-10-13T12:04:48.000Z,72.95
2022-10-13T12:05:48.000Z,73.28
2022-10-13T12:06:48.000Z,72.48
2022-10-13T12:07:48.000Z,73.19
2022-10-13T12:08:48.000Z,73.86
2022-10-13T12:09:48.000Z,73.15
2022-10-13T12:10:48.000Z,73.75
2022-10-13T12:11:48.000Z,73.25
2022-10-13T12:12:48.000Z,73.25
2022-10-13T12:13:48.000Z,73.46
2022-10-13T12:14:48.000Z,73.75
2022-10-13T12:15:48.000Z,74.06
2022-10-13T12:16:48.000Z,73.25
2022-10-13T12:17:48.000Z,72.85
2022-10-13T12:18:48.000Z,73.25
2022-10-13T12:19:48.000Z,74.06
2022-10-13T12:20:48.000Z,73.96
2022-10-13T12:21:48.000Z,74.16
2022-10-13T12:22:48.000Z,73.62
2022-10-13T12:23:48.000Z,73.22
2022-10-13T12:24:48.000Z,71.91
2022-10-13T12:25:48.000Z,72.81
2022-10-13T12:26:48.000Z,73.42
2022-10-13T12:27:48.000Z,73.72
2022-10-13T12:28:48.000Z,74.09
2022-10-13T12:29:48.000Z,73.99
2022-10-13T12:30:48.000Z,72.07
2022-10-13T12:31:48.000Z,72.58
2022-10-13T12:32:48.000Z,73.28
2022-10-13T12:33:48.000Z,72.17
2022-10-13T12:34:48.000Z,72.58
2022-10-13T12:35:48.000Z,71.97
2022-10-13T12:36:48.000Z,70.66
2022-10-13T12:37:48.000Z,72.04
2022-10-13T12:38:48.000Z,70.46
2022-10-13T12:39:48.000Z,69.72
2022-10-13T12:40:48.000Z,68.95
2022-10-13T12:41:48.000Z,68.54
2022-10-13T12:42:48.000Z,69.35
2022-10-13T12:43:48.000Z,69.75
2022-10-13T12:44:48.000Z,68.74
2022-10-13T12:45:48.000Z,68.64
2022-10-13T12:46:48.000Z,69.68
2022-10-13T12:47:48.000Z,69.48
2022-10-13T12:48:48.000Z,70.19
2022-10-13T12:49:48.000Z,70.19
2022-10-13T12:50:48.000Z,70.19
2022-10-13T12:51:48.000Z,69.08
2022-10-13T12:52:48.000Z,69.38